sensor_id;sensor_type;location;lat;lon;timestamp;temperature;humidity
20845;DHT22;10583;49.084;8.646;2023-02-20T00:01:46;8.60;99.90
20845;DHT22;10583;49.084;8.646;2023-02-20T00:04:13;8.60;99.90
20845;DHT22;10583;49.084;8.646;2023-02-20T00:06:40;8.60;99.90
20845;DHT22;10583;49.084;8.646;2023-02-20T00:09:06;8.60;99.90
20845;DHT22;10583;49.084;8.646;2023-02-20T00:11:33;8.50;99.90
20845;DHT22;10583;49.084;8.646;2023-02-20T00:14:02;8.50;99.90
20845;DHT22;10583;49.084;8.646;2023-02-20T00:16:28;8.50;99.90
20845;DHT22;10583;49.084;8.646;2023-02-20T00:18:55;8.50;99.90
20845;DHT22;10583;49.084;8.646;2023-02-20T00:21:22;8.40;99.90
20845;DHT22;10583;49.084;8.646;2023-02-20T00:23:48;8.40;99.90
20845;DHT22;10583;49.084;8.646;2023-02-20T00:26:15;8.40;99.90
20845;DHT22;10583;49.084;8.646;2023-02-20T00:28:42;8.40;99.90
20845;DHT22;10583;49.084;8.646;2023-02-20T00:31:13;8.40;99.90
20845;DHT22;10583;49.084;8.646;2023-02-20T00:33:40;8.40;99.90
20845;DHT22;10583;49.084;8.646;2023-02-20T00:36:12;8.30;99.90
20845;DHT22;10583;49.084;8.646;2023-02-20T00:38:41;8.30;99.90
20845;DHT22;10583;49.084;8.646;2023-02-20T00:41:08;8.20;99.90
20845;DHT22;10583;49.084;8.646;2023-02-20T00:43:35;8.20;99.90
20845;DHT22;10583;49.084;8.646;2023-02-20T00:46:03;8.10;99.90
20845;DHT22;10583;49.084;8.646;2023-02-20T00:48:31;8.10;99.90
20845;DHT22;10583;49.084;8.646;2023-02-20T00:50:58;8.00;99.90
20845;DHT22;10583;49.084;8.646;2023-02-20T00:53:24;7.90;99.90
20845;DHT22;10583;49.084;8.646;2023-02-20T00:55:51;7.90;99.90
20845;DHT22;10583;49.084;8.646;2023-02-20T00:58:18;7.90;99.90
20845;DHT22;10583;49.084;8.646;2023-02-20T01:00:44;7.80;99.90
20845;DHT22;10583;49.084;8.646;2023-02-20T01:03:11;7.80;99.90
20845;DHT22;10583;49.084;8.646;2023-02-20T01:05:40;7.80;99.90
20845;DHT22;10583;49.084;8.646;2023-02-20T01:08:07;7.70;99.90
20845;DHT22;10583;49.084;8.646;2023-02-20T01:10:33;7.70;99.90
20845;DHT22;10583;49.084;8.646;2023-02-20T01:13:00;7.60;99.90
20845;DHT22;10583;49.084;8.646;2023-02-20T01:15:27;7.60;99.90
20845;DHT22;10583;49.084;8.646;2023-02-20T01:17:53;7.60;99.90
20845;DHT22;10583;49.084;8.646;2023-02-20T01:20:20;7.50;99.90
20845;DHT22;10583;49.084;8.646;2023-02-20T01:22:48;7.50;99.90
20845;DHT22;10583;49.084;8.646;2023-02-20T01:25:15;7.40;99.90
20845;DHT22;10583;49.084;8.646;2023-02-20T01:27:42;7.50;99.90
20845;DHT22;10583;49.084;8.646;2023-02-20T01:30:09;7.40;99.90
20845;DHT22;10583;49.084;8.646;2023-02-20T01:32:36;7.40;99.90
20845;DHT22;10583;49.084;8.646;2023-02-20T01:35:03;7.40;99.90
20845;DHT22;10583;49.084;8.646;2023-02-20T01:37:30;7.40;99.90
20845;DHT22;10583;49.084;8.646;2023-02-20T01:39:58;7.40;99.90
20845;DHT22;10583;49.084;8.646;2023-02-20T01:42:28;7.30;99.90
20845;DHT22;10583;49.084;8.646;2023-02-20T01:47:36;7.30;99.90
20845;DHT22;10583;49.084;8.646;2023-02-20T01:50:04;7.30;99.90
20845;DHT22;10583;49.084;8.646;2023-02-20T01:52:33;7.30;99.90
20845;DHT22;10583;49.084;8.646;2023-02-20T01:55:08;7.20;99.90
20845;DHT22;10583;49.084;8.646;2023-02-20T01:57:40;7.20;99.90
20845;DHT22;10583;49.084;8.646;2023-02-20T02:00:10;7.10;99.90
20845;DHT22;10583;49.084;8.646;2023-02-20T02:02:41;7.10;99.90
20845;DHT22;10583;49.084;8.646;2023-02-20T02:05:11;7.10;99.90
20845;DHT22;10583;49.084;8.646;2023-02-20T02:07:39;7.10;99.90
20845;DHT22;10583;49.084;8.646;2023-02-20T02:10:10;7.10;99.90
20845;DHT22;10583;49.084;8.646;2023-02-20T02:12:38;7.10;99.90
20845;DHT22;10583;49.084;8.646;2023-02-20T02:15:12;7.00;99.90
20845;DHT22;10583;49.084;8.646;2023-02-20T02:17:55;7.00;99.90
20845;DHT22;10583;49.084;8.646;2023-02-20T02:27:05;7.00;99.90
20845;DHT22;10583;49.084;8.646;2023-02-20T02:29:50;7.00;99.90
20845;DHT22;10583;49.084;8.646;2023-02-20T02:38:25;7.10;99.90
20845;DHT22;10583;49.084;8.646;2023-02-20T02:41:04;7.00;99.90
20845;DHT22;10583;49.084;8.646;2023-02-20T02:43:48;7.00;99.90
20845;DHT22;10583;49.084;8.646;2023-02-20T02:46:21;7.00;99.90
20845;DHT22;10583;49.084;8.646;2023-02-20T02:48:54;6.90;99.90
20845;DHT22;10583;49.084;8.646;2023-02-20T02:51:24;6.90;99.90
20845;DHT22;10583;49.084;8.646;2023-02-20T02:54:06;6.90;99.90
20845;DHT22;10583;49.084;8.646;2023-02-20T02:56:34;6.90;99.90
20845;DHT22;10583;49.084;8.646;2023-02-20T02:59:02;6.90;99.90
20845;DHT22;10583;49.084;8.646;2023-02-20T03:01:30;6.90;99.90
20845;DHT22;10583;49.084;8.646;2023-02-20T03:03:59;6.90;99.90
20845;DHT22;10583;49.084;8.646;2023-02-20T03:06:31;7.00;99.90
20845;DHT22;10583;49.084;8.646;2023-02-20T03:09:02;7.00;99.90
20845;DHT22;10583;49.084;8.646;2023-02-20T03:11:33;6.90;99.90
20845;DHT22;10583;49.084;8.646;2023-02-20T03:14:04;6.90;99.90
20845;DHT22;10583;49.084;8.646;2023-02-20T03:16:53;6.90;99.90
20845;DHT22;10583;49.084;8.646;2023-02-20T03:19:26;6.80;99.90
20845;DHT22;10583;49.084;8.646;2023-02-20T03:21:56;6.80;99.90
20845;DHT22;10583;49.084;8.646;2023-02-20T03:24:25;6.80;99.90
20845;DHT22;10583;49.084;8.646;2023-02-20T03:26:55;6.80;99.90
20845;DHT22;10583;49.084;8.646;2023-02-20T03:29:28;6.90;99.90
20845;DHT22;10583;49.084;8.646;2023-02-20T03:31:57;6.90;99.90
20845;DHT22;10583;49.084;8.646;2023-02-20T03:34:43;6.90;99.90
20845;DHT22;10583;49.084;8.646;2023-02-20T03:37:30;6.90;99.90
20845;DHT22;10583;49.084;8.646;2023-02-20T03:40:18;6.90;99.90
20845;DHT22;10583;49.084;8.646;2023-02-20T03:43:08;6.90;99.90
20845;DHT22;10583;49.084;8.646;2023-02-20T03:45:49;6.90;99.90
20845;DHT22;10583;49.084;8.646;2023-02-20T03:48:20;7.00;99.90
20845;DHT22;10583;49.084;8.646;2023-02-20T03:50:49;7.00;99.90
20845;DHT22;10583;49.084;8.646;2023-02-20T03:53:34;6.90;99.90
20845;DHT22;10583;49.084;8.646;2023-02-20T03:56:03;6.90;99.90
20845;DHT22;10583;49.084;8.646;2023-02-20T03:58:33;6.90;99.90
20845;DHT22;10583;49.084;8.646;2023-02-20T04:01:03;6.80;99.90
20845;DHT22;10583;49.084;8.646;2023-02-20T04:03:34;6.80;99.90
20845;DHT22;10583;49.084;8.646;2023-02-20T04:06:05;6.80;99.90
20845;DHT22;10583;49.084;8.646;2023-02-20T04:08:37;6.90;99.90
20845;DHT22;10583;49.084;8.646;2023-02-20T04:11:07;6.90;99.90
20845;DHT22;10583;49.084;8.646;2023-02-20T04:13:38;6.90;99.90
20845;DHT22;10583;49.084;8.646;2023-02-20T04:16:06;6.90;99.90
20845;DHT22;10583;49.084;8.646;2023-02-20T04:18:34;6.80;99.90
20845;DHT22;10583;49.084;8.646;2023-02-20T04:21:04;6.90;99.90
20845;DHT22;10583;49.084;8.646;2023-02-20T04:23:36;6.90;99.90
20845;DHT22;10583;49.084;8.646;2023-02-20T04:26:08;6.80;99.90
20845;DHT22;10583;49.084;8.646;2023-02-20T04:28:37;6.80;99.90
20845;DHT22;10583;49.084;8.646;2023-02-20T04:31:04;6.80;99.90
20845;DHT22;10583;49.084;8.646;2023-02-20T04:33:32;6.80;99.90
20845;DHT22;10583;49.084;8.646;2023-02-20T04:35:58;6.80;99.90
20845;DHT22;10583;49.084;8.646;2023-02-20T04:38:25;6.80;99.90
20845;DHT22;10583;49.084;8.646;2023-02-20T04:40:52;6.80;99.90
20845;DHT22;10583;49.084;8.646;2023-02-20T04:43:18;6.80;99.90
20845;DHT22;10583;49.084;8.646;2023-02-20T04:45:46;6.80;99.90
20845;DHT22;10583;49.084;8.646;2023-02-20T04:48:13;6.80;99.90
20845;DHT22;10583;49.084;8.646;2023-02-20T04:50:40;6.70;99.90
20845;DHT22;10583;49.084;8.646;2023-02-20T04:53:07;6.70;99.90
20845;DHT22;10583;49.084;8.646;2023-02-20T04:55:33;6.70;99.90
20845;DHT22;10583;49.084;8.646;2023-02-20T04:58:00;6.70;99.90
20845;DHT22;10583;49.084;8.646;2023-02-20T05:00:27;6.60;99.90
20845;DHT22;10583;49.084;8.646;2023-02-20T05:02:56;6.60;99.90
20845;DHT22;10583;49.084;8.646;2023-02-20T05:05:24;6.60;99.90
20845;DHT22;10583;49.084;8.646;2023-02-20T05:07:53;6.60;99.90
20845;DHT22;10583;49.084;8.646;2023-02-20T05:10:21;6.50;99.90
20845;DHT22;10583;49.084;8.646;2023-02-20T05:12:48;6.50;99.90
20845;DHT22;10583;49.084;8.646;2023-02-20T05:15:15;6.50;99.90
20845;DHT22;10583;49.084;8.646;2023-02-20T05:17:42;6.50;99.90
20845;DHT22;10583;49.084;8.646;2023-02-20T05:20:15;6.50;99.90
20845;DHT22;10583;49.084;8.646;2023-02-20T05:22:43;6.50;99.90
20845;DHT22;10583;49.084;8.646;2023-02-20T05:25:09;6.40;99.90
20845;DHT22;10583;49.084;8.646;2023-02-20T05:27:36;6.40;99.90
20845;DHT22;10583;49.084;8.646;2023-02-20T05:30:03;6.40;99.90
20845;DHT22;10583;49.084;8.646;2023-02-20T05:32:30;6.40;99.90
20845;DHT22;10583;49.084;8.646;2023-02-20T05:34:57;6.30;99.90
20845;DHT22;10583;49.084;8.646;2023-02-20T05:37:26;6.30;99.90
20845;DHT22;10583;49.084;8.646;2023-02-20T05:39:54;6.30;99.90
20845;DHT22;10583;49.084;8.646;2023-02-20T05:42:21;6.30;99.90
20845;DHT22;10583;49.084;8.646;2023-02-20T05:44:48;6.20;99.90
20845;DHT22;10583;49.084;8.646;2023-02-20T05:47:15;6.20;99.90
20845;DHT22;10583;49.084;8.646;2023-02-20T05:49:42;6.20;99.90
20845;DHT22;10583;49.084;8.646;2023-02-20T05:52:10;6.10;99.90
20845;DHT22;10583;49.084;8.646;2023-02-20T05:54:39;6.10;99.90
20845;DHT22;10583;49.084;8.646;2023-02-20T05:57:06;6.10;99.90
20845;DHT22;10583;49.084;8.646;2023-02-20T05:59:33;6.10;99.90
20845;DHT22;10583;49.084;8.646;2023-02-20T06:02:00;6.10;99.90
20845;DHT22;10583;49.084;8.646;2023-02-20T06:04:28;6.10;99.90
20845;DHT22;10583;49.084;8.646;2023-02-20T06:06:55;6.10;99.90
20845;DHT22;10583;49.084;8.646;2023-02-20T06:09:21;6.10;99.90
20845;DHT22;10583;49.084;8.646;2023-02-20T06:11:51;6.10;99.90
20845;DHT22;10583;49.084;8.646;2023-02-20T06:14:19;6.10;99.90
20845;DHT22;10583;49.084;8.646;2023-02-20T06:16:46;6.10;99.90
20845;DHT22;10583;49.084;8.646;2023-02-20T06:19:17;6.10;99.90
20845;DHT22;10583;49.084;8.646;2023-02-20T06:21:44;6.10;99.90
20845;DHT22;10583;49.084;8.646;2023-02-20T06:24:11;6.10;99.90
20845;DHT22;10583;49.084;8.646;2023-02-20T06:26:39;6.10;99.90
20845;DHT22;10583;49.084;8.646;2023-02-20T06:29:07;6.10;99.90
20845;DHT22;10583;49.084;8.646;2023-02-20T06:31:34;6.20;99.90
20845;DHT22;10583;49.084;8.646;2023-02-20T06:34:01;6.20;99.90
20845;DHT22;10583;49.084;8.646;2023-02-20T06:36:30;6.20;99.90
20845;DHT22;10583;49.084;8.646;2023-02-20T06:38:58;6.30;99.90
20845;DHT22;10583;49.084;8.646;2023-02-20T06:41:25;6.40;99.90
20845;DHT22;10583;49.084;8.646;2023-02-20T06:43:51;6.40;99.90
20845;DHT22;10583;49.084;8.646;2023-02-20T06:46:19;6.40;99.90
20845;DHT22;10583;49.084;8.646;2023-02-20T06:48:48;6.40;99.90
20845;DHT22;10583;49.084;8.646;2023-02-20T06:51:16;6.50;99.90
20845;DHT22;10583;49.084;8.646;2023-02-20T06:53:43;6.50;99.90
20845;DHT22;10583;49.084;8.646;2023-02-20T06:56:13;6.50;99.90
20845;DHT22;10583;49.084;8.646;2023-02-20T06:58:43;6.50;99.90
20845;DHT22;10583;49.084;8.646;2023-02-20T07:01:09;6.60;99.90
20845;DHT22;10583;49.084;8.646;2023-02-20T07:03:37;6.50;99.90
20845;DHT22;10583;49.084;8.646;2023-02-20T07:06:04;6.60;99.90
20845;DHT22;10583;49.084;8.646;2023-02-20T07:08:31;6.60;99.90
20845;DHT22;10583;49.084;8.646;2023-02-20T07:10:58;6.60;99.90
20845;DHT22;10583;49.084;8.646;2023-02-20T07:13:24;6.70;99.90
20845;DHT22;10583;49.084;8.646;2023-02-20T07:15:51;6.70;99.90
20845;DHT22;10583;49.084;8.646;2023-02-20T07:18:18;6.80;99.90
20845;DHT22;10583;49.084;8.646;2023-02-20T07:20:50;6.80;99.90
20845;DHT22;10583;49.084;8.646;2023-02-20T07:23:17;6.90;99.90
20845;DHT22;10583;49.084;8.646;2023-02-20T07:25:43;7.00;99.90
20845;DHT22;10583;49.084;8.646;2023-02-20T07:28:10;7.10;99.90
20845;DHT22;10583;49.084;8.646;2023-02-20T07:30:37;7.30;99.90
20845;DHT22;10583;49.084;8.646;2023-02-20T07:33:03;7.40;99.90
20845;DHT22;10583;49.084;8.646;2023-02-20T07:35:30;7.50;99.90
20845;DHT22;10583;49.084;8.646;2023-02-20T07:37:58;7.60;99.90
20845;DHT22;10583;49.084;8.646;2023-02-20T07:40:25;7.80;99.90
20845;DHT22;10583;49.084;8.646;2023-02-20T07:42:51;7.90;99.90
20845;DHT22;10583;49.084;8.646;2023-02-20T07:45:18;7.90;99.90
20845;DHT22;10583;49.084;8.646;2023-02-20T07:47:45;8.10;99.90
20845;DHT22;10583;49.084;8.646;2023-02-20T07:50:13;8.20;99.90
20845;DHT22;10583;49.084;8.646;2023-02-20T07:52:40;8.40;99.90
20845;DHT22;10583;49.084;8.646;2023-02-20T07:55:08;8.50;99.90
20845;DHT22;10583;49.084;8.646;2023-02-20T07:57:35;8.60;99.90
20845;DHT22;10583;49.084;8.646;2023-02-20T08:00:04;8.70;99.90
20845;DHT22;10583;49.084;8.646;2023-02-20T08:02:31;8.80;99.90
20845;DHT22;10583;49.084;8.646;2023-02-20T08:04:58;9.00;99.90
20845;DHT22;10583;49.084;8.646;2023-02-20T08:07:24;9.00;99.90
20845;DHT22;10583;49.084;8.646;2023-02-20T08:09:51;9.00;99.90
20845;DHT22;10583;49.084;8.646;2023-02-20T08:12:19;9.10;99.90
20845;DHT22;10583;49.084;8.646;2023-02-20T08:14:48;9.20;99.90
20845;DHT22;10583;49.084;8.646;2023-02-20T08:17:15;9.40;99.90
20845;DHT22;10583;49.084;8.646;2023-02-20T08:19:42;9.40;99.90
20845;DHT22;10583;49.084;8.646;2023-02-20T08:22:09;9.50;99.90
20845;DHT22;10583;49.084;8.646;2023-02-20T08:24:35;9.60;99.90
20845;DHT22;10583;49.084;8.646;2023-02-20T08:27:02;9.70;99.90
20845;DHT22;10583;49.084;8.646;2023-02-20T08:29:31;9.90;99.90
20845;DHT22;10583;49.084;8.646;2023-02-20T08:31:57;10.10;99.90
20845;DHT22;10583;49.084;8.646;2023-02-20T08:34:24;10.30;99.90
20845;DHT22;10583;49.084;8.646;2023-02-20T08:36:51;10.60;99.90
20845;DHT22;10583;49.084;8.646;2023-02-20T08:39:17;10.90;99.90
20845;DHT22;10583;49.084;8.646;2023-02-20T08:41:45;11.20;99.90
20845;DHT22;10583;49.084;8.646;2023-02-20T08:44:13;11.40;99.90
20845;DHT22;10583;49.084;8.646;2023-02-20T08:46:46;11.40;99.90
20845;DHT22;10583;49.084;8.646;2023-02-20T08:49:13;11.40;99.90
20845;DHT22;10583;49.084;8.646;2023-02-20T08:51:41;11.20;99.90
20845;DHT22;10583;49.084;8.646;2023-02-20T08:54:07;11.30;99.90
20845;DHT22;10583;49.084;8.646;2023-02-20T08:56:34;11.50;99.90
20845;DHT22;10583;49.084;8.646;2023-02-20T08:59:01;11.60;99.90
20845;DHT22;10583;49.084;8.646;2023-02-20T09:01:27;11.60;99.90
20845;DHT22;10583;49.084;8.646;2023-02-20T09:03:55;11.70;99.90
20845;DHT22;10583;49.084;8.646;2023-02-20T09:06:22;11.90;99.90
20845;DHT22;10583;49.084;8.646;2023-02-20T09:08:50;11.80;99.90
20845;DHT22;10583;49.084;8.646;2023-02-20T09:11:17;11.80;99.90
20845;DHT22;10583;49.084;8.646;2023-02-20T09:13:46;11.70;99.90
20845;DHT22;10583;49.084;8.646;2023-02-20T09:16:15;11.90;99.90
20845;DHT22;10583;49.084;8.646;2023-02-20T09:18:43;11.70;99.90
20845;DHT22;10583;49.084;8.646;2023-02-20T09:21:12;11.70;99.90
20845;DHT22;10583;49.084;8.646;2023-02-20T09:23:39;11.50;99.90
20845;DHT22;10583;49.084;8.646;2023-02-20T09:26:06;11.50;99.90
20845;DHT22;10583;49.084;8.646;2023-02-20T09:28:33;11.30;99.90
20845;DHT22;10583;49.084;8.646;2023-02-20T09:30:59;11.00;99.90
20845;DHT22;10583;49.084;8.646;2023-02-20T09:33:27;10.80;99.90
20845;DHT22;10583;49.084;8.646;2023-02-20T09:35:54;10.70;99.90
20845;DHT22;10583;49.084;8.646;2023-02-20T09:38:23;10.70;99.90
20845;DHT22;10583;49.084;8.646;2023-02-20T09:40:53;10.90;99.90
20845;DHT22;10583;49.084;8.646;2023-02-20T09:43:31;11.20;99.90
20845;DHT22;10583;49.084;8.646;2023-02-20T09:46:05;11.30;99.90
20845;DHT22;10583;49.084;8.646;2023-02-20T09:48:43;11.60;99.90
20845;DHT22;10583;49.084;8.646;2023-02-20T09:51:17;12.00;99.90
20845;DHT22;10583;49.084;8.646;2023-02-20T09:53:51;12.70;99.90
20845;DHT22;10583;49.084;8.646;2023-02-20T09:56:21;13.10;99.90
20845;DHT22;10583;49.084;8.646;2023-02-20T09:58:53;13.30;99.90
20845;DHT22;10583;49.084;8.646;2023-02-20T10:01:25;13.40;99.90
20845;DHT22;10583;49.084;8.646;2023-02-20T10:03:54;13.00;99.90
20845;DHT22;10583;49.084;8.646;2023-02-20T10:06:23;13.30;99.90
20845;DHT22;10583;49.084;8.646;2023-02-20T10:08:52;13.50;99.90
20845;DHT22;10583;49.084;8.646;2023-02-20T10:11:26;13.20;99.90
20845;DHT22;10583;49.084;8.646;2023-02-20T10:14:04;13.40;99.90
20845;DHT22;10583;49.084;8.646;2023-02-20T10:16:38;13.40;99.90
20845;DHT22;10583;49.084;8.646;2023-02-20T10:19:17;13.70;99.90
20845;DHT22;10583;49.084;8.646;2023-02-20T10:21:53;13.60;99.90
20845;DHT22;10583;49.084;8.646;2023-02-20T10:24:34;13.60;99.90
20845;DHT22;10583;49.084;8.646;2023-02-20T10:27:17;13.50;99.90
20845;DHT22;10583;49.084;8.646;2023-02-20T10:29:45;13.50;99.90
20845;DHT22;10583;49.084;8.646;2023-02-20T10:32:17;13.60;99.90
20845;DHT22;10583;49.084;8.646;2023-02-20T10:34:52;13.70;99.90
20845;DHT22;10583;49.084;8.646;2023-02-20T10:37:23;13.80;99.90
20845;DHT22;10583;49.084;8.646;2023-02-20T10:39:57;13.90;99.90
20845;DHT22;10583;49.084;8.646;2023-02-20T10:42:30;14.10;99.90
20845;DHT22;10583;49.084;8.646;2023-02-20T10:45:01;14.30;99.90
20845;DHT22;10583;49.084;8.646;2023-02-20T10:47:35;14.60;99.90
20845;DHT22;10583;49.084;8.646;2023-02-20T10:50:10;15.10;99.90
20845;DHT22;10583;49.084;8.646;2023-02-20T10:52:41;15.20;99.90
20845;DHT22;10583;49.084;8.646;2023-02-20T10:55:17;15.20;99.90
20845;DHT22;10583;49.084;8.646;2023-02-20T10:57:48;15.40;99.90
20845;DHT22;10583;49.084;8.646;2023-02-20T11:00:19;15.10;99.90
20845;DHT22;10583;49.084;8.646;2023-02-20T11:02:53;14.80;99.90
20845;DHT22;10583;49.084;8.646;2023-02-20T11:05:25;14.80;99.90
20845;DHT22;10583;49.084;8.646;2023-02-20T11:07:54;15.00;99.90
20845;DHT22;10583;49.084;8.646;2023-02-20T11:10:22;15.00;99.90
20845;DHT22;10583;49.084;8.646;2023-02-20T11:12:50;14.50;99.90
20845;DHT22;10583;49.084;8.646;2023-02-20T11:15:19;14.60;99.90
20845;DHT22;10583;49.084;8.646;2023-02-20T11:17:49;14.70;99.90
20845;DHT22;10583;49.084;8.646;2023-02-20T11:20:37;14.80;99.90
20845;DHT22;10583;49.084;8.646;2023-02-20T11:23:05;15.20;99.90
20845;DHT22;10583;49.084;8.646;2023-02-20T11:25:34;15.40;99.90
20845;DHT22;10583;49.084;8.646;2023-02-20T11:28:08;15.70;99.90
20845;DHT22;10583;49.084;8.646;2023-02-20T11:30:37;16.10;99.90
20845;DHT22;10583;49.084;8.646;2023-02-20T11:33:10;15.60;99.90
20845;DHT22;10583;49.084;8.646;2023-02-20T11:35:40;14.60;99.90
20845;DHT22;10583;49.084;8.646;2023-02-20T11:38:29;14.90;99.90
20845;DHT22;10583;49.084;8.646;2023-02-20T11:44:18;15.60;99.90
20845;DHT22;10583;49.084;8.646;2023-02-20T11:46:45;15.60;99.90
20845;DHT22;10583;49.084;8.646;2023-02-20T11:49:23;15.20;99.90
20845;DHT22;10583;49.084;8.646;2023-02-20T11:51:51;15.20;99.90
20845;DHT22;10583;49.084;8.646;2023-02-20T11:54:20;15.00;99.90
20845;DHT22;10583;49.084;8.646;2023-02-20T11:56:58;15.00;99.90
20845;DHT22;10583;49.084;8.646;2023-02-20T11:59:34;15.10;99.90
20845;DHT22;10583;49.084;8.646;2023-02-20T12:02:22;15.30;99.90
20845;DHT22;10583;49.084;8.646;2023-02-20T12:05:12;15.70;99.90
20845;DHT22;10583;49.084;8.646;2023-02-20T12:07:42;15.70;99.90
20845;DHT22;10583;49.084;8.646;2023-02-20T12:10:32;15.70;99.90
20845;DHT22;10583;49.084;8.646;2023-02-20T12:13:03;15.80;99.90
20845;DHT22;10583;49.084;8.646;2023-02-20T12:15:31;15.50;99.90
20845;DHT22;10583;49.084;8.646;2023-02-20T12:18:13;15.60;99.90
20845;DHT22;10583;49.084;8.646;2023-02-20T12:20:47;16.00;99.90
20845;DHT22;10583;49.084;8.646;2023-02-20T12:23:20;16.10;99.90
20845;DHT22;10583;49.084;8.646;2023-02-20T12:25:56;16.20;99.90
20845;DHT22;10583;49.084;8.646;2023-02-20T12:28:33;16.50;99.90
20845;DHT22;10583;49.084;8.646;2023-02-20T12:31:16;16.20;99.90
20845;DHT22;10583;49.084;8.646;2023-02-20T12:33:54;16.10;99.90
20845;DHT22;10583;49.084;8.646;2023-02-20T12:36:28;15.70;99.90
20845;DHT22;10583;49.084;8.646;2023-02-20T12:38:57;15.80;99.90
20845;DHT22;10583;49.084;8.646;2023-02-20T12:41:38;15.60;99.90
20845;DHT22;10583;49.084;8.646;2023-02-20T12:44:22;16.00;99.90
20845;DHT22;10583;49.084;8.646;2023-02-20T12:46:59;16.10;99.90
20845;DHT22;10583;49.084;8.646;2023-02-20T12:49:49;16.00;99.90
20845;DHT22;10583;49.084;8.646;2023-02-20T12:52:34;15.90;99.90
20845;DHT22;10583;49.084;8.646;2023-02-20T12:55:12;16.10;99.90
20845;DHT22;10583;49.084;8.646;2023-02-20T12:57:47;16.10;99.90
20845;DHT22;10583;49.084;8.646;2023-02-20T13:00:24;16.00;99.90
20845;DHT22;10583;49.084;8.646;2023-02-20T13:02:57;16.00;99.90
20845;DHT22;10583;49.084;8.646;2023-02-20T13:05:26;15.90;99.90
20845;DHT22;10583;49.084;8.646;2023-02-20T13:07:55;15.70;99.90
20845;DHT22;10583;49.084;8.646;2023-02-20T13:10:23;15.70;99.90
20845;DHT22;10583;49.084;8.646;2023-02-20T13:12:52;15.80;99.90
20845;DHT22;10583;49.084;8.646;2023-02-20T13:15:29;16.00;99.90
20845;DHT22;10583;49.084;8.646;2023-02-20T13:18:03;16.30;99.90
20845;DHT22;10583;49.084;8.646;2023-02-20T13:20:37;16.20;99.90
20845;DHT22;10583;49.084;8.646;2023-02-20T13:23:25;16.10;99.90
20845;DHT22;10583;49.084;8.646;2023-02-20T13:25:54;15.80;99.90
20845;DHT22;10583;49.084;8.646;2023-02-20T13:31:20;15.80;99.90
20845;DHT22;10583;49.084;8.646;2023-02-20T13:33:49;16.20;99.90
20845;DHT22;10583;49.084;8.646;2023-02-20T13:36:39;16.30;99.90
20845;DHT22;10583;49.084;8.646;2023-02-20T13:48:37;15.70;99.90
20845;DHT22;10583;49.084;8.646;2023-02-20T13:51:32;15.50;99.90
20845;DHT22;10583;49.084;8.646;2023-02-20T13:54:25;15.20;99.90
20845;DHT22;10583;49.084;8.646;2023-02-20T13:56:55;14.90;99.90
20845;DHT22;10583;49.084;8.646;2023-02-20T13:59:25;14.90;99.90
20845;DHT22;10583;49.084;8.646;2023-02-20T14:01:55;15.10;99.90
20845;DHT22;10583;49.084;8.646;2023-02-20T14:04:23;15.30;99.90
20845;DHT22;10583;49.084;8.646;2023-02-20T14:06:50;15.40;99.90
20845;DHT22;10583;49.084;8.646;2023-02-20T14:09:20;15.40;99.90
20845;DHT22;10583;49.084;8.646;2023-02-20T14:11:48;15.40;99.90
20845;DHT22;10583;49.084;8.646;2023-02-20T14:14:25;15.40;99.90
20845;DHT22;10583;49.084;8.646;2023-02-20T14:17:02;15.20;99.90
20845;DHT22;10583;49.084;8.646;2023-02-20T14:19:31;15.10;99.90
20845;DHT22;10583;49.084;8.646;2023-02-20T14:22:24;15.20;99.90
20845;DHT22;10583;49.084;8.646;2023-02-20T14:25:19;15.20;99.90
20845;DHT22;10583;49.084;8.646;2023-02-20T14:27:46;15.10;99.90
20845;DHT22;10583;49.084;8.646;2023-02-20T14:30:16;15.20;99.90
20845;DHT22;10583;49.084;8.646;2023-02-20T14:32:44;15.30;99.90
20845;DHT22;10583;49.084;8.646;2023-02-20T14:35:30;15.40;99.90
20845;DHT22;10583;49.084;8.646;2023-02-20T14:38:13;15.30;99.90
20845;DHT22;10583;49.084;8.646;2023-02-20T14:40:42;15.30;99.90
20845;DHT22;10583;49.084;8.646;2023-02-20T14:43:15;15.30;99.90
20845;DHT22;10583;49.084;8.646;2023-02-20T14:45:44;15.30;99.90
20845;DHT22;10583;49.084;8.646;2023-02-20T14:48:21;15.30;99.90
20845;DHT22;10583;49.084;8.646;2023-02-20T14:51:15;15.20;99.90
20845;DHT22;10583;49.084;8.646;2023-02-20T14:53:42;15.20;99.90
20845;DHT22;10583;49.084;8.646;2023-02-20T14:56:12;15.10;99.90
20845;DHT22;10583;49.084;8.646;2023-02-20T14:58:39;15.10;99.90
20845;DHT22;10583;49.084;8.646;2023-02-20T15:01:17;14.90;99.90
20845;DHT22;10583;49.084;8.646;2023-02-20T15:03:58;14.90;99.90
20845;DHT22;10583;49.084;8.646;2023-02-20T15:06:28;14.80;99.90
20845;DHT22;10583;49.084;8.646;2023-02-20T15:08:56;14.80;99.90
20845;DHT22;10583;49.084;8.646;2023-02-20T15:11:24;14.80;99.90
20845;DHT22;10583;49.084;8.646;2023-02-20T15:13:51;14.90;99.90
20845;DHT22;10583;49.084;8.646;2023-02-20T15:16:21;14.80;99.90
20845;DHT22;10583;49.084;8.646;2023-02-20T15:18:48;14.70;99.90
20845;DHT22;10583;49.084;8.646;2023-02-20T15:21:32;14.70;99.90
20845;DHT22;10583;49.084;8.646;2023-02-20T15:24:12;14.50;99.90
20845;DHT22;10583;49.084;8.646;2023-02-20T15:26:39;14.40;99.90
20845;DHT22;10583;49.084;8.646;2023-02-20T15:29:11;14.40;99.90
20845;DHT22;10583;49.084;8.646;2023-02-20T15:31:39;14.30;99.90
20845;DHT22;10583;49.084;8.646;2023-02-20T15:34:12;14.20;99.90
20845;DHT22;10583;49.084;8.646;2023-02-20T15:36:42;14.10;99.90
20845;DHT22;10583;49.084;8.646;2023-02-20T15:39:10;14.10;99.90
20845;DHT22;10583;49.084;8.646;2023-02-20T15:41:37;14.00;99.90
20845;DHT22;10583;49.084;8.646;2023-02-20T15:44:04;13.90;99.90
20845;DHT22;10583;49.084;8.646;2023-02-20T15:46:30;13.90;99.90
20845;DHT22;10583;49.084;8.646;2023-02-20T15:48:57;13.90;99.90
20845;DHT22;10583;49.084;8.646;2023-02-20T15:51:24;13.80;99.90
20845;DHT22;10583;49.084;8.646;2023-02-20T15:53:53;13.80;99.90
20845;DHT22;10583;49.084;8.646;2023-02-20T15:56:22;13.80;99.90
20845;DHT22;10583;49.084;8.646;2023-02-20T15:58:49;13.70;99.90
20845;DHT22;10583;49.084;8.646;2023-02-20T16:01:16;13.60;99.90
20845;DHT22;10583;49.084;8.646;2023-02-20T16:03:43;13.50;99.90
20845;DHT22;10583;49.084;8.646;2023-02-20T16:06:10;13.50;99.90
20845;DHT22;10583;49.084;8.646;2023-02-20T16:08:37;13.40;99.90
20845;DHT22;10583;49.084;8.646;2023-02-20T16:11:05;13.40;99.90
20845;DHT22;10583;49.084;8.646;2023-02-20T16:13:34;13.40;99.90
20845;DHT22;10583;49.084;8.646;2023-02-20T16:16:06;13.40;99.90
20845;DHT22;10583;49.084;8.646;2023-02-20T16:18:37;13.30;99.90
20845;DHT22;10583;49.084;8.646;2023-02-20T16:21:04;13.20;99.90
20845;DHT22;10583;49.084;8.646;2023-02-20T16:23:31;13.20;99.90
20845;DHT22;10583;49.084;8.646;2023-02-20T16:25:59;13.20;99.90
20845;DHT22;10583;49.084;8.646;2023-02-20T16:28:27;13.10;99.90
20845;DHT22;10583;49.084;8.646;2023-02-20T16:30:53;13.00;99.90
20845;DHT22;10583;49.084;8.646;2023-02-20T16:33:21;13.00;99.90